Hlavní strana
METAR-TAF:

METAR-TAF

Letiště :

Sundsvall-Härnösand, Švédsko

zeměpisná šířka: 62-32N, zeměpisná délka: 017-27E, výška: 4 m

Aktuální stav počasí

Zpráva byla vytvořena před 28 minutami, v 06:20 UTC
Bezvětří
Teplota 5°C
Vlhkost vzduchu 70%
Tlak 1021 hPa
Viditelnost 10 km a více

METAR: ESNN 210620Z AUTO 00000KT 9999 OVC120/// 05/M00 Q1021

Čas: 08:48 (06:48 UTC)

Předpověď počasí

Zpráva byla vytvořena před 13 hodinami a 18 minutami, v 17:30 UTC
Předpověď platná od 20 v 18 UTC do 20 v 22 UTC
Jihojihovýchodní vítr 5 kt
Viditelnost 10 km a více
Žádná oblačnost pod 1500 m, nevyskytují se cumulonimby.

TAF: ESNN 201730Z 2018/2022 15005KT CAVOK

Stav a předpovědi počasí z více než 4 000 letišť (zprávy METAR a TAF).

Červené a žluté tečky na mapě představují dostupné meteorologické stanice.

Když kurzor umístíte na tečku, zobrazí se název stanice.

Pak kliknutím zobrazíte stav a předpověď počasí.

Chcete-li změnit mapu, kliknutím na zelené tlačítko se znaménkem +mapu přiblížíte, kliknutím na zelené tlačítko se znaménkem – mapu oddálíte a kliknutím na zelené šipky přejdete na sousední mapy.


METAR-TAF: